createdAt,value
2023-04-04T00:00:30.000Z,98.10
2023-04-04T00:02:56.900Z,98.00
2023-04-04T00:05:23.914Z,98.00
2023-04-04T00:07:50.700Z,98.40
2023-04-04T00:10:17.498Z,98.50
2023-04-04T00:12:44.279Z,98.40
2023-04-04T00:15:11.608Z,98.30
2023-04-04T00:17:38.794Z,97.70
2023-04-04T00:20:06.442Z,97.90
2023-04-04T00:22:33.195Z,97.80
2023-04-04T00:25:00.108Z,97.80
2023-04-04T00:27:26.952Z,97.70
2023-04-04T00:29:53.691Z,97.70
2023-04-04T00:32:20.657Z,98.20
2023-04-04T00:34:53.041Z,97.80
2023-04-04T00:37:19.821Z,98.00
2023-04-04T00:39:47.729Z,98.00
2023-04-04T00:42:14.488Z,98.00
2023-04-04T00:44:41.468Z,98.30
2023-04-04T00:47:08.212Z,98.00
2023-04-04T00:49:34.909Z,98.00
2023-04-04T00:52:01.654Z,98.40
2023-04-04T00:54:29.799Z,97.90
2023-04-04T00:56:56.734Z,98.30
2023-04-04T00:59:26.117Z,98.20
2023-04-04T01:01:53.035Z,98.10
2023-04-04T01:04:19.933Z,98.30
2023-04-04T01:06:46.884Z,98.30
2023-04-04T01:09:13.642Z,98.50
2023-04-04T01:11:40.788Z,98.50
2023-04-04T01:14:07.659Z,98.70
2023-04-04T01:16:36.177Z,98.90
2023-04-04T01:19:06.581Z,98.50
2023-04-04T01:21:34.387Z,99.30
2023-04-04T01:24:04.708Z,98.90
2023-04-04T01:26:31.676Z,99.10
2023-04-04T01:28:59.471Z,99.30
2023-04-04T01:31:37.867Z,99.60
2023-04-04T01:34:26.353Z,99.40
2023-04-04T01:37:08.107Z,99.50
2023-04-04T01:39:44.824Z,99.90
2023-04-04T01:42:12.840Z,99.90
2023-04-04T01:44:39.786Z,99.90
2023-04-04T01:47:09.870Z,99.90
2023-04-04T01:49:36.466Z,99.90
2023-04-04T01:52:03.915Z,99.90
2023-04-04T01:54:32.261Z,99.90
2023-04-04T01:56:58.980Z,99.90
2023-04-04T01:59:25.849Z,99.90
2023-04-04T02:01:52.982Z,99.90
2023-04-04T02:04:19.931Z,99.90
2023-04-04T02:06:47.261Z,99.90
2023-04-04T02:09:14.388Z,99.90
2023-04-04T02:11:41.412Z,99.90
2023-04-04T02:14:08.750Z,99.90
2023-04-04T02:16:35.462Z,99.90
2023-04-04T02:19:02.241Z,99.90
2023-04-04T02:21:28.942Z,99.90
2023-04-04T02:23:55.748Z,99.90
2023-04-04T02:26:22.586Z,99.90
2023-04-04T02:28:49.365Z,99.90
2023-04-04T02:31:16.713Z,99.90
2023-04-04T02:33:43.419Z,99.90
2023-04-04T02:36:10.469Z,99.90
2023-04-04T02:38:37.238Z,99.90
2023-04-04T02:41:04.318Z,99.90
2023-04-04T02:43:31.223Z,99.90
2023-04-04T02:45:59.645Z,99.90
2023-04-04T02:48:27.452Z,99.90
2023-04-04T02:50:54.242Z,99.90
2023-04-04T02:53:21.299Z,99.90
2023-04-04T02:55:48.747Z,99.90
2023-04-04T02:58:15.543Z,99.90
2023-04-04T03:00:42.382Z,99.90
2023-04-04T03:03:09.515Z,99.90
2023-04-04T03:05:36.438Z,99.90
2023-04-04T03:08:04.745Z,99.90
2023-04-04T03:10:31.659Z,99.90
2023-04-04T03:12:58.706Z,99.90
2023-04-04T03:15:26.532Z,99.90
2023-04-04T03:17:53.910Z,99.90
2023-04-04T03:20:21.964Z,99.90
2023-04-04T03:22:49.195Z,99.90
2023-04-04T03:25:16.166Z,99.90
2023-04-04T03:27:42.949Z,99.90
2023-04-04T03:30:10.260Z,99.90
2023-04-04T03:32:38.014Z,99.90
2023-04-04T03:35:05.630Z,99.90
2023-04-04T03:37:32.440Z,99.90
2023-04-04T03:39:59.372Z,99.90
2023-04-04T03:42:26.930Z,99.90
2023-04-04T03:44:53.967Z,99.90
2023-04-04T03:47:21.018Z,99.90
2023-04-04T03:49:47.891Z,99.90
2023-04-04T03:52:14.593Z,99.90
2023-04-04T03:54:41.785Z,99.90
2023-04-04T03:57:08.575Z,99.90
2023-04-04T03:59:35.320Z,99.90
2023-04-04T04:02:02.086Z,99.90
2023-04-04T04:04:28.914Z,99.90
2023-04-04T04:06:55.779Z,99.90
2023-04-04T04:09:22.506Z,99.90
2023-04-04T04:11:49.225Z,99.90
2023-04-04T04:14:15.972Z,99.90
2023-04-04T04:16:42.684Z,99.90
2023-04-04T04:19:09.370Z,99.90
2023-04-04T04:21:36.061Z,99.90
2023-04-04T04:24:02.877Z,99.90
2023-04-04T04:26:29.660Z,99.90
2023-04-04T04:28:56.416Z,99.90
2023-04-04T04:31:23.195Z,99.90
2023-04-04T04:33:49.923Z,99.90
2023-04-04T04:36:16.752Z,99.90
2023-04-04T04:38:43.468Z,99.90
2023-04-04T04:41:10.172Z,99.90
2023-04-04T04:43:37.256Z,99.90
2023-04-04T04:46:03.998Z,99.90
2023-04-04T04:48:30.790Z,99.90
2023-04-04T04:50:57.558Z,99.90
2023-04-04T04:53:24.326Z,99.90
2023-04-04T04:55:52.335Z,99.90
2023-04-04T04:58:22.546Z,99.90
2023-04-04T05:00:49.401Z,99.90
2023-04-04T05:03:16.202Z,99.90
2023-04-04T05:05:43.941Z,99.90
2023-04-04T05:08:10.669Z,99.90
2023-04-04T05:10:37.446Z,99.90
2023-04-04T05:13:04.324Z,99.90
2023-04-04T05:15:31.496Z,99.90
2023-04-04T05:17:58.534Z,99.90
2023-04-04T05:20:25.257Z,99.90
2023-04-04T05:22:52.026Z,99.90
2023-04-04T05:25:18.963Z,99.90
2023-04-04T05:27:49.502Z,99.90
2023-04-04T05:30:16.973Z,99.90
2023-04-04T05:32:46.725Z,99.90
2023-04-04T05:35:13.609Z,99.90
2023-04-04T05:37:41.193Z,99.90
2023-04-04T05:40:08.798Z,99.90
2023-04-04T05:42:35.625Z,99.90
2023-04-04T05:45:02.502Z,99.90
2023-04-04T05:47:29.294Z,99.90
2023-04-04T05:49:56.187Z,99.90
2023-04-04T05:52:22.906Z,99.90
2023-04-04T05:54:49.640Z,99.30
2023-04-04T05:57:16.320Z,94.30
2023-04-04T05:59:43.394Z,90.50
2023-04-04T06:02:10.116Z,79.90
2023-04-04T06:04:36.927Z,69.70
2023-04-04T06:07:03.674Z,62.80
2023-04-04T06:09:30.643Z,56.60
2023-04-04T06:11:57.419Z,57.20
2023-04-04T06:14:24.119Z,58.40
2023-04-04T06:16:50.987Z,58.40
2023-04-04T06:19:17.950Z,58.30
2023-04-04T06:21:45.446Z,58.80
2023-04-04T06:24:12.144Z,58.30
2023-04-04T06:26:39.273Z,57.50
2023-04-04T06:29:05.973Z,58.10
2023-04-04T06:31:32.790Z,58.80
2023-04-04T06:34:01.495Z,57.30
2023-04-04T06:36:28.350Z,55.70
2023-04-04T06:38:55.276Z,54.70
2023-04-04T06:41:22.003Z,51.00
2023-04-04T06:43:49.191Z,48.10
2023-04-04T06:46:16.136Z,43.50
2023-04-04T06:48:43.470Z,43.20
2023-04-04T06:51:11.216Z,42.00
2023-04-04T06:53:38.675Z,40.90
2023-04-04T06:56:05.897Z,41.40
2023-04-04T06:58:32.696Z,39.80
2023-04-04T07:00:59.950Z,40.20
2023-04-04T07:03:27.244Z,39.70
2023-04-04T07:05:54.031Z,40.10
2023-04-04T07:08:21.050Z,38.50
2023-04-04T07:10:47.807Z,36.00
2023-04-04T07:13:14.655Z,35.40
2023-04-04T07:15:41.489Z,35.10
2023-04-04T07:18:09.085Z,34.80
2023-04-04T07:20:36.387Z,32.00
2023-04-04T07:23:03.110Z,32.60
2023-04-04T07:25:29.856Z,33.00
2023-04-04T07:28:09.526Z,33.10
2023-04-04T07:30:39.315Z,32.30
2023-04-04T07:33:06.357Z,32.50
2023-04-04T07:35:33.107Z,31.40
2023-04-04T07:37:59.966Z,30.40
2023-04-04T07:40:27.284Z,30.20
2023-04-04T07:42:54.718Z,31.50
2023-04-04T07:45:22.695Z,32.70
2023-04-04T07:47:49.651Z,37.20
2023-04-04T07:50:16.927Z,36.40
2023-04-04T07:52:52.326Z,35.40
2023-04-04T07:55:20.179Z,37.60
2023-04-04T07:57:47.279Z,39.00
2023-04-04T08:00:14.795Z,40.70
2023-04-04T08:02:44.445Z,43.70
2023-04-04T08:05:11.323Z,46.80
2023-04-04T08:07:38.184Z,48.40
2023-04-04T08:10:06.190Z,50.20
2023-04-04T08:12:33.129Z,51.20
2023-04-04T08:14:59.861Z,52.10
2023-04-04T08:17:26.692Z,53.40
2023-04-04T08:19:53.666Z,53.90
2023-04-04T08:22:20.365Z,56.10
2023-04-04T08:24:47.105Z,55.50
2023-04-04T08:27:15.924Z,55.60
2023-04-04T08:29:42.711Z,51.80
2023-04-04T08:32:09.648Z,50.70
2023-04-04T08:34:36.429Z,51.30
2023-04-04T08:37:03.301Z,53.60
2023-04-04T08:39:30.098Z,53.10
2023-04-04T08:42:05.619Z,52.80
2023-04-04T08:44:34.791Z,50.30
2023-04-04T08:47:05.796Z,48.90
2023-04-04T08:49:38.504Z,48.70
2023-04-04T08:52:06.410Z,50.10
2023-04-04T08:54:35.645Z,51.70
2023-04-04T08:57:04.078Z,48.80
2023-04-04T08:59:31.409Z,46.40
2023-04-04T09:02:14.376Z,46.30
2023-04-04T09:04:44.641Z,48.30
2023-04-04T09:07:16.647Z,49.60
2023-04-04T09:09:46.225Z,50.50
2023-04-04T09:12:17.049Z,51.70
2023-04-04T09:14:44.111Z,53.30
2023-04-04T09:17:11.000Z,53.30
2023-04-04T09:19:38.149Z,52.50
2023-04-04T09:22:09.109Z,50.30
2023-04-04T09:24:40.429Z,51.00
2023-04-04T09:27:12.147Z,50.20
2023-04-04T09:29:39.875Z,50.30
2023-04-04T09:32:17.177Z,50.40
2023-04-04T09:34:47.948Z,52.00
2023-04-04T09:37:17.564Z,55.50
2023-04-04T09:39:45.165Z,54.10
2023-04-04T09:42:12.574Z,53.60
2023-04-04T09:44:39.506Z,54.20
2023-04-04T09:47:31.416Z,52.40
2023-04-04T09:50:02.074Z,54.90
2023-04-04T09:52:31.763Z,53.80
2023-04-04T09:54:59.939Z,54.60
2023-04-04T09:57:29.386Z,51.30
2023-04-04T10:00:04.554Z,50.50
2023-04-04T10:02:31.623Z,51.30
2023-04-04T10:05:06.071Z,48.90
2023-04-04T10:07:33.956Z,44.20
2023-04-04T10:10:08.075Z,42.80
2023-04-04T10:12:36.796Z,43.20
2023-04-04T10:15:03.855Z,44.10
2023-04-04T10:17:36.186Z,45.40
2023-04-04T10:20:06.414Z,45.60
2023-04-04T10:22:34.373Z,47.80
2023-04-04T10:25:01.182Z,47.40
2023-04-04T10:27:28.418Z,48.90
2023-04-04T10:29:57.278Z,51.00
2023-04-04T10:33:01.282Z,49.60
2023-04-04T10:35:31.004Z,50.60
2023-04-04T10:38:00.087Z,50.10
2023-04-04T10:40:33.217Z,49.80
2023-04-04T10:43:04.122Z,47.20
2023-04-04T10:45:33.190Z,44.90
2023-04-04T10:48:04.502Z,45.40
2023-04-04T10:50:33.243Z,45.00
2023-04-04T10:53:02.124Z,43.10
2023-04-04T10:55:29.535Z,44.20
2023-04-04T10:57:56.886Z,42.70
2023-04-04T11:00:24.308Z,41.80
2023-04-04T11:02:57.670Z,43.40
2023-04-04T11:05:43.395Z,46.80
2023-04-04T11:08:14.065Z,45.80
2023-04-04T11:10:46.079Z,44.10
2023-04-04T11:13:17.070Z,45.10
2023-04-04T11:15:52.635Z,44.80
2023-04-04T11:18:34.320Z,44.50
2023-04-04T11:21:07.386Z,46.20
2023-04-04T11:23:49.627Z,46.60
2023-04-04T11:26:34.372Z,44.00
2023-04-04T11:29:08.017Z,45.00
2023-04-04T11:31:39.034Z,45.10
2023-04-04T11:34:13.960Z,44.70
2023-04-04T11:36:42.502Z,44.80
2023-04-04T11:39:28.650Z,45.50
2023-04-04T11:42:05.724Z,45.50
2023-04-04T11:44:39.624Z,47.90
2023-04-04T11:47:06.347Z,47.70
2023-04-04T11:49:43.528Z,50.20
2023-04-04T11:52:13.194Z,49.90
2023-04-04T11:54:41.605Z,50.70
2023-04-04T11:57:11.952Z,49.50
2023-04-04T11:59:43.431Z,50.00
2023-04-04T12:02:10.468Z,49.50
2023-04-04T12:04:39.833Z,48.10
2023-04-04T12:07:09.186Z,49.40
2023-04-04T12:09:37.020Z,50.80
2023-04-04T12:12:04.958Z,50.40
2023-04-04T12:14:33.528Z,51.40
2023-04-04T12:17:01.618Z,53.10
2023-04-04T12:19:29.586Z,51.10
2023-04-04T12:21:57.743Z,50.70
2023-04-04T12:24:26.730Z,52.20
2023-04-04T12:26:53.640Z,52.60
2023-04-04T12:29:22.812Z,52.20
2023-04-04T12:31:50.687Z,53.30
2023-04-04T12:34:25.161Z,53.30
2023-04-04T12:36:52.903Z,52.90
2023-04-04T12:39:21.608Z,54.30
2023-04-04T12:42:09.189Z,54.60
2023-04-04T12:44:40.142Z,56.40
2023-04-04T12:47:09.148Z,56.50
2023-04-04T12:49:40.047Z,56.30
2023-04-04T12:52:16.184Z,55.90
2023-04-04T12:54:44.468Z,54.90
2023-04-04T12:57:17.361Z,53.40
2023-04-04T12:59:47.464Z,53.50
2023-04-04T13:02:19.849Z,53.00
2023-04-04T13:04:47.472Z,53.10
2023-04-04T13:07:28.454Z,53.90
2023-04-04T13:10:03.926Z,54.20
2023-04-04T13:13:07.518Z,54.70
2023-04-04T13:15:52.950Z,56.40
2023-04-04T13:18:22.290Z,54.00
2023-04-04T13:20:50.733Z,54.30
2023-04-04T13:23:17.626Z,54.20
2023-04-04T13:25:44.382Z,53.80
2023-04-04T13:28:11.678Z,55.00
2023-04-04T13:30:43.381Z,55.50
2023-04-04T13:33:10.519Z,55.00
2023-04-04T13:35:38.300Z,54.70
2023-04-04T13:38:05.212Z,54.20
2023-04-04T13:40:31.947Z,54.30
2023-04-04T13:42:58.688Z,54.00
2023-04-04T13:45:26.194Z,52.60
2023-04-04T13:47:53.091Z,54.00
2023-04-04T13:50:21.240Z,54.40
2023-04-04T13:52:48.978Z,53.60
2023-04-04T13:55:15.801Z,53.60
2023-04-04T13:57:42.533Z,52.90
2023-04-04T14:00:09.834Z,53.10
2023-04-04T14:02:37.197Z,54.40
2023-04-04T14:05:04.445Z,54.00
2023-04-04T14:07:31.365Z,54.40
2023-04-04T14:09:58.281Z,54.10
2023-04-04T14:12:24.993Z,54.40
2023-04-04T14:14:51.682Z,54.70
2023-04-04T14:17:18.360Z,55.50
2023-04-04T14:19:45.257Z,55.70
2023-04-04T14:22:12.018Z,57.30
2023-04-04T14:24:38.772Z,57.30
2023-04-04T14:27:05.932Z,55.90
2023-04-04T14:29:32.716Z,56.20
2023-04-04T14:31:59.580Z,55.80
2023-04-04T14:34:29.195Z,55.40
2023-04-04T14:36:56.079Z,54.90
2023-04-04T14:39:22.866Z,55.70
2023-04-04T14:41:49.626Z,55.50
2023-04-04T14:44:16.464Z,55.90
2023-04-04T14:46:43.253Z,55.60
2023-04-04T14:49:10.030Z,55.60
2023-04-04T14:51:36.754Z,55.90
2023-04-04T14:54:03.506Z,55.20
2023-04-04T14:56:30.831Z,55.90
2023-04-04T14:58:57.671Z,56.30
2023-04-04T15:01:24.662Z,57.60
2023-04-04T15:03:51.518Z,57.60
2023-04-04T15:06:18.308Z,58.20
2023-04-04T15:08:45.148Z,57.30
2023-04-04T15:11:13.176Z,56.90
2023-04-04T15:13:39.996Z,56.20
2023-04-04T15:16:06.848Z,56.20
2023-04-04T15:18:33.854Z,55.10
2023-04-04T15:21:00.644Z,57.00
2023-04-04T15:23:27.356Z,56.10
2023-04-04T15:25:54.111Z,57.20
2023-04-04T15:28:21.290Z,58.00
2023-04-04T15:30:48.026Z,58.30
2023-04-04T15:33:14.840Z,59.30
2023-04-04T15:35:41.612Z,58.40
2023-04-04T15:38:08.330Z,58.40
2023-04-04T15:40:35.068Z,58.40
2023-04-04T15:43:01.774Z,58.40
2023-04-04T15:45:28.515Z,58.50
2023-04-04T15:47:55.332Z,58.90
2023-04-04T15:50:22.039Z,57.60
2023-04-04T15:52:48.778Z,57.90
2023-04-04T15:55:17.119Z,58.70
2023-04-04T15:57:44.743Z,58.70
2023-04-04T16:00:13.291Z,58.20
2023-04-04T16:02:40.227Z,59.50
2023-04-04T16:05:07.358Z,59.40
2023-04-04T16:07:34.106Z,59.30
2023-04-04T16:10:00.887Z,60.10
2023-04-04T16:12:27.702Z,60.10
2023-04-04T16:14:54.417Z,60.40
2023-04-04T16:17:21.134Z,60.60
2023-04-04T16:19:47.884Z,61.40
2023-04-04T16:22:15.290Z,61.00
2023-04-04T16:24:42.144Z,61.40
2023-04-04T16:27:09.029Z,60.80
2023-04-04T16:29:36.038Z,60.20
2023-04-04T16:32:05.684Z,60.80
2023-04-04T16:34:32.431Z,59.90
2023-04-04T16:36:59.189Z,60.20
2023-04-04T16:39:26.129Z,60.50
2023-04-04T16:41:52.849Z,60.10
2023-04-04T16:44:19.575Z,59.70
2023-04-04T16:46:47.528Z,59.90
2023-04-04T16:49:14.444Z,60.10
2023-04-04T16:51:41.173Z,59.60
2023-04-04T16:54:08.434Z,59.90
2023-04-04T16:56:35.376Z,59.60
2023-04-04T16:59:02.139Z,59.80
2023-04-04T17:01:31.552Z,60.60
2023-04-04T17:03:58.837Z,61.70
2023-04-04T17:06:25.715Z,60.30
2023-04-04T17:08:52.492Z,60.10
2023-04-04T17:11:19.245Z,60.40
2023-04-04T17:13:46.070Z,60.50
2023-04-04T17:16:12.797Z,62.10
2023-04-04T17:18:39.567Z,60.80
2023-04-04T17:21:06.513Z,61.60
2023-04-04T17:23:33.740Z,62.10
2023-04-04T17:26:00.474Z,63.30
2023-04-04T17:28:27.402Z,64.10
2023-04-04T17:30:54.107Z,65.60
2023-04-04T17:33:23.144Z,65.60
2023-04-04T17:35:50.043Z,64.40
2023-04-04T17:38:16.885Z,64.00
2023-04-04T17:40:43.624Z,64.10
2023-04-04T17:43:10.465Z,64.60
2023-04-04T17:45:37.425Z,64.60
2023-04-04T17:48:04.340Z,64.70
2023-04-04T17:50:31.175Z,64.60
2023-04-04T17:52:57.916Z,64.40
2023-04-04T17:55:24.717Z,64.00
2023-04-04T17:57:51.843Z,64.60
2023-04-04T18:00:18.961Z,64.70
2023-04-04T18:02:47.143Z,64.20
2023-04-04T18:05:14.761Z,64.40
2023-04-04T18:07:41.426Z,64.90
2023-04-04T18:10:09.075Z,65.10
2023-04-04T18:12:36.335Z,65.40
2023-04-04T18:15:03.991Z,66.10
2023-04-04T18:17:32.294Z,65.90
2023-04-04T18:20:00.779Z,65.80
2023-04-04T18:22:27.613Z,66.40
2023-04-04T18:24:54.796Z,66.60
2023-04-04T18:27:21.519Z,67.00
2023-04-04T18:29:48.296Z,67.40
2023-04-04T18:32:15.030Z,67.30
2023-04-04T18:34:41.769Z,68.50
2023-04-04T18:37:08.688Z,68.30
2023-04-04T18:39:36.225Z,68.40
2023-04-04T18:42:03.095Z,68.70
2023-04-04T18:44:31.259Z,69.20
2023-04-04T18:47:00.498Z,69.70
2023-04-04T18:49:27.650Z,70.00
2023-04-04T18:51:54.320Z,70.40
2023-04-04T18:54:21.204Z,70.60
2023-04-04T18:56:48.905Z,70.70
2023-04-04T18:59:18.612Z,71.00
2023-04-04T19:01:45.549Z,71.40
2023-04-04T19:04:13.961Z,71.40
2023-04-04T19:06:42.292Z,71.60
2023-04-04T19:09:10.532Z,71.80
2023-04-04T19:11:38.194Z,72.10
2023-04-04T19:14:05.419Z,72.50
2023-04-04T19:16:33.715Z,72.70
2023-04-04T19:19:00.591Z,73.10
2023-04-04T19:21:28.032Z,73.40
2023-04-04T19:23:54.841Z,74.00
2023-04-04T19:26:21.804Z,74.30
2023-04-04T19:28:48.701Z,74.50
2023-04-04T19:31:21.966Z,74.80
2023-04-04T19:33:54.891Z,75.00
2023-04-04T19:36:22.287Z,75.40
2023-04-04T19:38:49.313Z,75.70
2023-04-04T19:41:19.121Z,76.00
2023-04-04T19:43:47.243Z,76.40
2023-04-04T19:46:27.212Z,76.90
2023-04-04T19:48:56.172Z,77.80
2023-04-04T19:51:22.945Z,78.40
2023-04-04T19:53:54.636Z,79.00
2023-04-04T19:56:23.407Z,80.30
2023-04-04T19:58:54.803Z,80.10
2023-04-04T20:01:29.592Z,81.70
2023-04-04T20:03:57.399Z,82.80
2023-04-04T20:06:29.333Z,83.20
2023-04-04T20:08:58.195Z,83.50
2023-04-04T20:11:32.220Z,83.90
2023-04-04T20:14:05.680Z,84.50
2023-04-04T20:16:33.298Z,85.10
2023-04-04T20:19:01.784Z,85.80
2023-04-04T20:21:31.432Z,86.30
2023-04-04T20:24:03.282Z,86.80
2023-04-04T20:26:36.338Z,87.30
2023-04-04T20:29:06.819Z,88.00
2023-04-04T20:31:42.390Z,88.40
2023-04-04T20:34:42.846Z,88.80
2023-04-04T20:37:22.111Z,89.50
2023-04-04T20:40:00.321Z,89.90
2023-04-04T20:42:33.797Z,90.10
2023-04-04T20:45:09.868Z,90.50
2023-04-04T20:47:44.645Z,90.70
2023-04-04T20:50:17.475Z,91.00
2023-04-04T20:53:05.362Z,91.40
2023-04-04T20:55:34.135Z,91.70
2023-04-04T20:58:08.048Z,92.30
2023-04-04T21:00:40.526Z,92.40
2023-04-04T21:03:18.623Z,92.70
2023-04-04T21:05:45.639Z,92.90
2023-04-04T21:08:35.956Z,93.30
2023-04-04T21:11:02.812Z,93.90
2023-04-04T21:13:36.884Z,94.40
2023-04-04T21:16:12.013Z,95.00
2023-04-04T21:18:40.505Z,95.80
2023-04-04T21:21:21.248Z,96.20
2023-04-04T21:23:50.898Z,96.80
2023-04-04T21:26:35.477Z,97.30
2023-04-04T21:29:24.887Z,97.80
2023-04-04T21:31:54.015Z,98.20
2023-04-04T21:34:23.006Z,98.70
2023-04-04T21:36:52.495Z,99.40
2023-04-04T21:39:31.033Z,99.90
2023-04-04T21:42:00.125Z,99.90
2023-04-04T21:44:27.249Z,99.90
2023-04-04T21:46:57.159Z,99.90
2023-04-04T21:49:25.025Z,99.90
2023-04-04T21:51:52.221Z,99.90
2023-04-04T21:54:19.158Z,99.90
2023-04-04T21:56:46.503Z,99.90
2023-04-04T21:59:13.303Z,99.90
2023-04-04T22:01:40.638Z,99.90
2023-04-04T22:04:07.676Z,99.90
2023-04-04T22:06:34.653Z,99.90
2023-04-04T22:09:04.268Z,99.90
2023-04-04T22:11:31.171Z,99.90
2023-04-04T22:14:04.188Z,99.90
2023-04-04T22:16:32.112Z,99.90
2023-04-04T22:19:01.103Z,99.90
2023-04-04T22:21:28.289Z,99.90
2023-04-04T22:24:01.962Z,99.90
2023-04-04T22:26:32.468Z,99.90
2023-04-04T22:29:00.851Z,99.90
2023-04-04T22:31:28.700Z,99.90
2023-04-04T22:33:55.859Z,99.90
2023-04-04T22:36:24.433Z,99.90
2023-04-04T22:38:56.716Z,99.90
2023-04-04T22:41:29.211Z,99.90
2023-04-04T22:43:57.981Z,99.90
2023-04-04T22:46:26.490Z,99.90
2023-04-04T22:49:06.080Z,99.90
2023-04-04T22:51:42.916Z,99.90
2023-04-04T22:54:11.055Z,99.90
2023-04-04T22:56:37.733Z,99.90
2023-04-04T22:59:04.535Z,99.90
2023-04-04T23:01:31.508Z,99.90
2023-04-04T23:03:58.348Z,99.90
2023-04-04T23:06:25.110Z,99.90
2023-04-04T23:08:51.842Z,99.90
2023-04-04T23:11:18.547Z,99.90
2023-04-04T23:13:45.261Z,99.90
2023-04-04T23:16:12.359Z,99.90
2023-04-04T23:18:39.293Z,99.90
2023-04-04T23:21:07.275Z,99.90
2023-04-04T23:23:33.966Z,99.90
2023-04-04T23:26:00.774Z,99.90
2023-04-04T23:28:29.754Z,99.90
2023-04-04T23:30:56.628Z,99.90
2023-04-04T23:33:23.324Z,99.90
2023-04-04T23:35:50.078Z,99.90
2023-04-04T23:38:16.906Z,99.90
2023-04-04T23:40:43.608Z,99.90
2023-04-04T23:43:10.398Z,99.90
2023-04-04T23:45:40.284Z,99.90
2023-04-04T23:48:07.179Z,99.90
2023-04-04T23:50:33.971Z,99.90
2023-04-04T23:53:00.984Z,99.90
2023-04-04T23:55:27.718Z,99.90
2023-04-04T23:58:00.762Z,99.90
